Flight Track Log - Related Links

Times and Time Zones

All times are in EDT time to prevent confusion due to time zone crossing. See the DAL3698 flight status page for this flight to view local times or setup timezone preferences in your user account.

Time Position Orientation Groundspeed Altitude Reporting Facility
EDT Latitude Longitude Course Direction KTS MPH feet Rate Location/Type
Sat 07:22:42 AM 42.7808 -84.6214 270° West 148 170 2,100  Level Chicago Center
Sat 07:23:43 AM 42.7808 -84.6908 270° West 176 203 3,700 1,820 Climbing Chicago Center
Sat 07:24:44 AM 42.7806 -84.7783 270° West 223 257 5,800 2,361 Climbing Chicago Center
Sat 07:25:00 AM 42.7667 -84.9876 270° West  Level FlightAware Approximate
Sat 07:25:45 AM 42.7811 -84.8767 270° West 254 292 8,500  Level Chicago Center
Sat 07:26:00 AM 42.7833 -85.1202 270° West  Level FlightAware Approximate
Sat 07:26:46 AM 42.7831 -84.9794 272° West 268 308 10,600  Level Chicago Center
Sat 07:27:00 AM 42.7834 -85.2550 270° West  Level FlightAware Approximate
Sat 07:27:46 AM 42.7842 -85.0983 271° West 310 357 12,000  Level Chicago Center
Sat 07:28:00 AM 42.7834 -85.3943 270° West  Level FlightAware Approximate
Sat 07:28:47 AM 42.7847 -85.2261 270° West 335 386 13,600  Level Chicago Center
Sat 07:29:48 AM 42.7858 -85.3597 271° West 350 403 15,300 1,672 Climbing Chicago Center
Sat 07:30:49 AM 42.7883 -85.4956 271° West 359 413 17,000 1,426 Climbing Chicago Center
Sat 07:31:50 AM 42.8039 -85.6267 279° West 353 406 18,200 1,131 Climbing Chicago Center
Sat 07:32:51 AM 42.8364 -85.7575 289° West 366 421 19,300 1,033 Climbing Chicago Center
Sat 07:33:52 AM 42.8781 -85.8872 294° West 371 427 20,300 984 Climbing Chicago Center
Sat 07:34:53 AM 42.9200 -86.0217 293° West 378 435 21,300 992 Climbing Chicago Center
Sat 07:35:53 AM 42.9639 -86.1586 294° West 383 441 22,300 992 Climbing Chicago Center
Sat 07:36:54 AM 43.0061 -86.2947 293° West 385 443 23,300 984 Climbing Chicago Center
Sat 07:37:55 AM 43.0489 -86.4275 294° West 381 438 24,300 787 Climbing Chicago Center
Sat 07:38:56 AM 43.0908 -86.5636 293° West 387 445 24,900 541 Climbing Chicago Center
Sat 07:39:57 AM 43.1333 -86.7028 293° West 396 456 25,400 492 Climbing Chicago Center
Sat 07:40:58 AM 43.1778 -86.8453 293° West 405 466 25,900 295 Climbing Chicago Center
Sat 07:41:59 AM 43.2222 -86.9900 293° West 412 474 26,000 49 Climbing Chicago Center
Sat 07:43:00 AM 43.2761 -87.1683 293° West 423 487 26,000  Level Chicago Center
Sat 07:44:01 AM 43.3219 -87.3186 293° West 429 494 26,000  Level Chicago Center
Sat 07:45:02 AM 43.3647 -87.4639 292° West 428 493 26,000  Level Chicago Center
Sat 07:46:03 AM 43.4106 -87.6169 292° West 431 496 26,000  Level Chicago Center
Sat 07:47:04 AM 43.4564 -87.7708 292° West 433 498 26,000  Level Chicago Center
Sat 07:48:05 AM 43.5025 -87.9244 293° West 431 496 26,000  Level Chicago Center
Sat 07:49:06 AM 43.5475 -88.0772 292° West 430 495 26,000  Level Chicago Center
Sat 07:50:07 AM 43.5992 -88.2553 292° West 430 495 26,000  Level Chicago Center
Sat 07:51:02 AM 43.6350 -88.3811 292° West 431 496 26,000  Level Minneapolis Center
Sat 07:52:03 AM 43.6783 -88.5328 292° West 430 495 26,000  Level Minneapolis Center
Sat 07:53:04 AM 43.7222 -88.6850 292° West 432 497 26,000  Level Minneapolis Center
Sat 07:54:04 AM 43.7581 -88.8125 291° West 429 494 26,000  Level Minneapolis Center
Sat 07:55:05 AM 43.8156 -89.0169 291° West 427 491 26,000  Level Minneapolis Center
Sat 07:56:06 AM 43.8572 -89.1703 291° West 427 491 26,000  Level Minneapolis Center
Sat 07:57:07 AM 43.8994 -89.3228 291° West 425 489 26,000  Level Minneapolis Center
Sat 07:58:08 AM 43.9422 -89.4764 291° West 426 490 26,000  Level Minneapolis Center
Sat 07:59:08 AM 43.9847 -89.6283 291° West 425 489 26,000  Level Minneapolis Center
Sat 08:00:09 AM 44.0403 -89.7719 298° West 424 488 26,000  Level Minneapolis Center
Sat 08:01:10 AM 44.0992 -89.9142 300° West 424 488 26,000  Level Minneapolis Center
Sat 08:02:10 AM 44.1581 -90.0569 300° West 424 488 26,000  Level Minneapolis Center
Sat 08:03:11 AM 44.2172 -90.1983 300° West 423 487 26,000 -98 Level Minneapolis Center
Sat 08:04:12 AM 44.2761 -90.3419 300° West 425 489 25,800 -639 Descending Minneapolis Center
Sat 08:05:13 AM 44.3350 -90.4864 300° West 428 493 24,700 -893 Descending Minneapolis Center
Sat 08:06:13 AM 44.3933 -90.6261 300° West 418 481 24,000 -347 Descending Minneapolis Center
Sat 08:07:14 AM 44.4411 -90.7411 300° West 411 473 24,000  Level Minneapolis Center
Sat 08:08:15 AM 44.5100 -90.9136 299° West 413 475 24,000  Level Minneapolis Center
Sat 08:09:16 AM 44.5617 -91.0439 299° West 413 475 24,000  Level Minneapolis Center
Sat 08:10:16 AM 44.6183 -91.1842 300° West 414 476 24,000  Level Minneapolis Center
Sat 08:11:17 AM 44.6739 -91.3236 299° West 412 474 24,000 -246 Level Minneapolis Center
Sat 08:12:18 AM 44.7408 -91.4944 299° West 416 479 23,500 -1,328 Descending Minneapolis Center
Sat 08:13:19 AM 44.7978 -91.6375 299° West 419 482 21,300 -2,213 Descending Minneapolis Center
Sat 08:14:20 AM 44.8528 -91.7778 299° West 415 478 19,000 -2,132 Descending Minneapolis Center
Sat 08:15:20 AM 44.9058 -91.9106 299° West 395 455 17,000 -2,083 Descending Minneapolis Center
Sat 08:16:21 AM 44.9542 -92.0381 298° West 373 429 14,800 -2,164 Descending Minneapolis Center
Sat 08:17:22 AM 45.0025 -92.1642 298° West 368 423 12,600 -1,820 Descending Minneapolis Center
Sat 08:18:23 AM 45.0467 -92.2964 295° West 373 429 11,100 -787 Descending Minneapolis Center
Sat 08:19:24 AM 45.0264 -92.4336 258° West 356 410 11,000 -49 Descending Minneapolis Center
Sat 08:20:25 AM 45.0064 -92.5656 258° West 347 399 11,000  Level Minneapolis Center
Sat 08:21:26 AM 44.9842 -92.7006 257° West 355 409 11,000  Level Minneapolis Center
Sat 08:22:27 AM 44.9617 -92.8369 257° West 358 412 11,000 -541 Level Minneapolis Center
Sat 08:23:28 AM 44.9378 -92.9869 257° West 319 367 9,900 -1,377 Descending Minneapolis Center
Sat 08:24:29 AM 44.9381 -93.0900 270° West 278 320 8,200 -1,525 Descending Minneapolis Center
Sat 08:25:30 AM 44.9722 -93.1789 299° West 260 299 6,800 -1,082 Descending Minneapolis Center
Sat 08:26:31 AM 45.0147 -93.2503 310° West 231 266 6,000 -393 Descending Minneapolis Center
Sat 08:27:32 AM 45.0517 -93.3181 308° West 223 257 6,000 -393 Level Minneapolis Center
Sat 08:28:33 AM 45.0569 -93.3958 276° West 234 269 5,200 -1,033 Descending Minneapolis Center
Sat 08:29:34 AM 44.9975 -93.3908 177° South 236 272 3,900 -1,033 Descending Minneapolis Center
Sat 08:30:35 AM 44.9539 -93.3517 148° Southeast 182 209 3,100 -787 Descending Minneapolis Center

Login

Don't have an account? Register now (free) for customized features, flight alerts, and more!